sensor_id;sensor_type;location;lat;lon;timestamp;P1;durP1;ratioP1;P2;durP2;ratioP2
7181;SDS011;3632;42.724;23.298;2023-05-10T00:00:22;3.40;;;3.00;;
7181;SDS011;3632;42.724;23.298;2023-05-10T00:02:49;3.17;;;2.97;;
7181;SDS011;3632;42.724;23.298;2023-05-10T00:05:16;3.77;;;3.33;;
7181;SDS011;3632;42.724;23.298;2023-05-10T00:07:42;4.07;;;3.70;;
7181;SDS011;3632;42.724;23.298;2023-05-10T00:10:11;5.70;;;4.13;;
7181;SDS011;3632;42.724;23.298;2023-05-10T00:12:38;5.17;;;4.70;;
7181;SDS011;3632;42.724;23.298;2023-05-10T00:15:05;6.70;;;5.30;;
7181;SDS011;3632;42.724;23.298;2023-05-10T00:17:33;6.10;;;5.50;;
7181;SDS011;3632;42.724;23.298;2023-05-10T00:19:59;6.57;;;6.00;;
7181;SDS011;3632;42.724;23.298;2023-05-10T00:22:27;6.77;;;6.17;;
7181;SDS011;3632;42.724;23.298;2023-05-10T00:24:54;7.20;;;6.50;;
7181;SDS011;3632;42.724;23.298;2023-05-10T00:27:22;7.73;;;7.03;;
7181;SDS011;3632;42.724;23.298;2023-05-10T00:29:49;7.53;;;6.83;;
7181;SDS011;3632;42.724;23.298;2023-05-10T00:32:16;7.47;;;6.77;;
7181;SDS011;3632;42.724;23.298;2023-05-10T00:34:42;7.47;;;6.77;;
7181;SDS011;3632;42.724;23.298;2023-05-10T00:37:09;6.30;;;5.80;;
7181;SDS011;3632;42.724;23.298;2023-05-10T00:39:36;6.97;;;6.37;;
7181;SDS011;3632;42.724;23.298;2023-05-10T00:42:03;6.80;;;6.20;;
7181;SDS011;3632;42.724;23.298;2023-05-10T00:44:32;6.87;;;6.23;;
7181;SDS011;3632;42.724;23.298;2023-05-10T00:46:58;6.73;;;6.20;;
7181;SDS011;3632;42.724;23.298;2023-05-10T00:49:26;6.33;;;5.83;;
7181;SDS011;3632;42.724;23.298;2023-05-10T00:51:53;7.63;;;6.70;;
7181;SDS011;3632;42.724;23.298;2023-05-10T00:54:20;8.87;;;6.60;;
7181;SDS011;3632;42.724;23.298;2023-05-10T00:56:47;7.30;;;6.60;;
7181;SDS011;3632;42.724;23.298;2023-05-10T00:59:14;7.57;;;6.77;;
7181;SDS011;3632;42.724;23.298;2023-05-10T01:01:44;7.57;;;6.87;;
7181;SDS011;3632;42.724;23.298;2023-05-10T01:04:12;8.00;;;7.30;;
7181;SDS011;3632;42.724;23.298;2023-05-10T01:06:39;7.50;;;6.80;;
7181;SDS011;3632;42.724;23.298;2023-05-10T01:09:07;8.03;;;7.33;;
7181;SDS011;3632;42.724;23.298;2023-05-10T01:11:34;8.00;;;7.30;;
7181;SDS011;3632;42.724;23.298;2023-05-10T01:14:01;8.53;;;7.73;;
7181;SDS011;3632;42.724;23.298;2023-05-10T01:16:28;7.73;;;7.03;;
7181;SDS011;3632;42.724;23.298;2023-05-10T01:18:59;7.87;;;7.13;;
7181;SDS011;3632;42.724;23.298;2023-05-10T01:21:28;7.87;;;7.17;;
7181;SDS011;3632;42.724;23.298;2023-05-10T01:30:35;8.07;;;6.70;;
7181;SDS011;3632;42.724;23.298;2023-05-10T01:33:28;7.23;;;6.63;;
7181;SDS011;3632;42.724;23.298;2023-05-10T01:36:02;6.73;;;6.13;;
7181;SDS011;3632;42.724;23.298;2023-05-10T01:38:36;7.07;;;6.47;;
7181;SDS011;3632;42.724;23.298;2023-05-10T01:41:11;7.03;;;6.43;;
7181;SDS011;3632;42.724;23.298;2023-05-10T01:43:43;6.50;;;6.00;;
7181;SDS011;3632;42.724;23.298;2023-05-10T01:46:20;6.23;;;5.73;;
7181;SDS011;3632;42.724;23.298;2023-05-10T01:48:55;6.90;;;6.20;;
7181;SDS011;3632;42.724;23.298;2023-05-10T01:51:25;6.73;;;6.23;;
7181;SDS011;3632;42.724;23.298;2023-05-10T01:53:54;6.47;;;5.90;;
7181;SDS011;3632;42.724;23.298;2023-05-10T01:56:26;6.37;;;5.77;;
7181;SDS011;3632;42.724;23.298;2023-05-10T01:58:54;6.47;;;5.93;;
7181;SDS011;3632;42.724;23.298;2023-05-10T02:01:23;6.30;;;5.80;;
7181;SDS011;3632;42.724;23.298;2023-05-10T02:03:51;5.77;;;5.33;;
7181;SDS011;3632;42.724;23.298;2023-05-10T02:06:21;6.17;;;5.67;;
7181;SDS011;3632;42.724;23.298;2023-05-10T02:08:50;6.07;;;5.57;;
7181;SDS011;3632;42.724;23.298;2023-05-10T02:11:19;5.83;;;5.33;;
7181;SDS011;3632;42.724;23.298;2023-05-10T02:13:47;6.27;;;5.77;;
7181;SDS011;3632;42.724;23.298;2023-05-10T02:16:15;7.30;;;5.43;;
7181;SDS011;3632;42.724;23.298;2023-05-10T02:18:44;5.93;;;5.30;;
7181;SDS011;3632;42.724;23.298;2023-05-10T02:21:13;5.07;;;4.67;;
7181;SDS011;3632;42.724;23.298;2023-05-10T02:23:43;5.53;;;5.10;;
7181;SDS011;3632;42.724;23.298;2023-05-10T02:26:11;5.97;;;5.47;;
7181;SDS011;3632;42.724;23.298;2023-05-10T02:28:40;6.07;;;5.50;;
7181;SDS011;3632;42.724;23.298;2023-05-10T02:31:08;6.23;;;5.63;;
7181;SDS011;3632;42.724;23.298;2023-05-10T02:33:36;5.63;;;5.13;;
7181;SDS011;3632;42.724;23.298;2023-05-10T02:36:05;6.00;;;5.50;;
7181;SDS011;3632;42.724;23.298;2023-05-10T02:38:35;5.97;;;5.40;;
7181;SDS011;3632;42.724;23.298;2023-05-10T02:41:03;6.13;;;5.53;;
7181;SDS011;3632;42.724;23.298;2023-05-10T02:43:32;5.90;;;5.40;;
7181;SDS011;3632;42.724;23.298;2023-05-10T02:46:00;6.30;;;5.70;;
7181;SDS011;3632;42.724;23.298;2023-05-10T02:48:27;5.50;;;5.10;;
7181;SDS011;3632;42.724;23.298;2023-05-10T02:50:55;5.67;;;4.93;;
7181;SDS011;3632;42.724;23.298;2023-05-10T02:53:28;5.33;;;4.63;;
7181;SDS011;3632;42.724;23.298;2023-05-10T02:56:00;5.27;;;4.77;;
7181;SDS011;3632;42.724;23.298;2023-05-10T02:58:32;5.80;;;4.43;;
7181;SDS011;3632;42.724;23.298;2023-05-10T03:00:59;5.00;;;4.47;;
7181;SDS011;3632;42.724;23.298;2023-05-10T03:03:27;5.30;;;4.80;;
7181;SDS011;3632;42.724;23.298;2023-05-10T03:05:53;5.20;;;4.70;;
7181;SDS011;3632;42.724;23.298;2023-05-10T03:08:21;5.00;;;4.50;;
7181;SDS011;3632;42.724;23.298;2023-05-10T03:10:52;4.90;;;4.43;;
7181;SDS011;3632;42.724;23.298;2023-05-10T03:13:29;6.90;;;4.57;;
7181;SDS011;3632;42.724;23.298;2023-05-10T03:16:05;5.07;;;4.43;;
7181;SDS011;3632;42.724;23.298;2023-05-10T03:18:37;6.90;;;5.27;;
7181;SDS011;3632;42.724;23.298;2023-05-10T03:21:08;5.37;;;4.87;;
7181;SDS011;3632;42.724;23.298;2023-05-10T03:23:39;6.40;;;4.83;;
7181;SDS011;3632;42.724;23.298;2023-05-10T03:26:09;7.03;;;5.13;;
7181;SDS011;3632;42.724;23.298;2023-05-10T03:28:39;8.13;;;5.20;;
7181;SDS011;3632;42.724;23.298;2023-05-10T03:31:07;5.10;;;4.60;;
7181;SDS011;3632;42.724;23.298;2023-05-10T03:33:35;7.57;;;5.20;;
7181;SDS011;3632;42.724;23.298;2023-05-10T03:36:02;5.67;;;5.17;;
7181;SDS011;3632;42.724;23.298;2023-05-10T03:38:29;5.93;;;5.10;;
7181;SDS011;3632;42.724;23.298;2023-05-10T03:40:56;5.47;;;4.97;;
7181;SDS011;3632;42.724;23.298;2023-05-10T03:43:23;6.40;;;4.90;;
7181;SDS011;3632;42.724;23.298;2023-05-10T03:45:51;6.07;;;5.47;;
7181;SDS011;3632;42.724;23.298;2023-05-10T03:48:18;5.47;;;4.93;;
7181;SDS011;3632;42.724;23.298;2023-05-10T03:50:44;7.10;;;5.40;;
7181;SDS011;3632;42.724;23.298;2023-05-10T03:53:11;5.70;;;5.10;;
7181;SDS011;3632;42.724;23.298;2023-05-10T03:55:38;6.20;;;4.80;;
7181;SDS011;3632;42.724;23.298;2023-05-10T03:58:05;5.63;;;4.70;;
7181;SDS011;3632;42.724;23.298;2023-05-10T04:00:32;7.50;;;4.83;;
7181;SDS011;3632;42.724;23.298;2023-05-10T04:03:00;6.57;;;5.33;;
7181;SDS011;3632;42.724;23.298;2023-05-10T04:05:27;5.83;;;4.93;;
7181;SDS011;3632;42.724;23.298;2023-05-10T04:07:53;6.07;;;4.53;;
7181;SDS011;3632;42.724;23.298;2023-05-10T04:10:20;7.10;;;5.10;;
7181;SDS011;3632;42.724;23.298;2023-05-10T04:12:47;5.73;;;4.83;;
7181;SDS011;3632;42.724;23.298;2023-05-10T04:15:14;8.20;;;5.40;;
7181;SDS011;3632;42.724;23.298;2023-05-10T04:17:41;6.30;;;5.00;;
7181;SDS011;3632;42.724;23.298;2023-05-10T04:20:10;5.73;;;5.03;;
7181;SDS011;3632;42.724;23.298;2023-05-10T04:22:40;7.40;;;4.87;;
7181;SDS011;3632;42.724;23.298;2023-05-10T04:25:07;5.47;;;4.73;;
7181;SDS011;3632;42.724;23.298;2023-05-10T04:27:35;4.97;;;4.57;;
7181;SDS011;3632;42.724;23.298;2023-05-10T04:30:05;5.40;;;4.90;;
7181;SDS011;3632;42.724;23.298;2023-05-10T04:32:33;5.07;;;4.50;;
7181;SDS011;3632;42.724;23.298;2023-05-10T04:34:59;5.03;;;4.53;;
7181;SDS011;3632;42.724;23.298;2023-05-10T04:37:29;5.03;;;4.60;;
7181;SDS011;3632;42.724;23.298;2023-05-10T04:39:56;5.77;;;4.60;;
7181;SDS011;3632;42.724;23.298;2023-05-10T04:42:25;6.43;;;4.77;;
7181;SDS011;3632;42.724;23.298;2023-05-10T04:44:51;5.03;;;4.53;;
7181;SDS011;3632;42.724;23.298;2023-05-10T04:47:18;5.60;;;5.00;;
7181;SDS011;3632;42.724;23.298;2023-05-10T04:49:45;5.17;;;4.67;;
7181;SDS011;3632;42.724;23.298;2023-05-10T04:52:12;7.93;;;5.30;;
7181;SDS011;3632;42.724;23.298;2023-05-10T04:54:40;6.13;;;5.43;;
7181;SDS011;3632;42.724;23.298;2023-05-10T04:57:07;6.43;;;5.27;;
7181;SDS011;3632;42.724;23.298;2023-05-10T04:59:35;6.57;;;5.43;;
7181;SDS011;3632;42.724;23.298;2023-05-10T05:02:02;6.20;;;5.60;;
7181;SDS011;3632;42.724;23.298;2023-05-10T05:04:29;7.03;;;5.50;;
7181;SDS011;3632;42.724;23.298;2023-05-10T05:06:56;6.53;;;5.77;;
7181;SDS011;3632;42.724;23.298;2023-05-10T05:09:23;10.40;;;5.47;;
7181;SDS011;3632;42.724;23.298;2023-05-10T05:11:52;6.37;;;5.23;;
7181;SDS011;3632;42.724;23.298;2023-05-10T05:14:19;7.03;;;5.70;;
7181;SDS011;3632;42.724;23.298;2023-05-10T05:16:46;7.03;;;5.80;;
7181;SDS011;3632;42.724;23.298;2023-05-10T05:19:13;8.50;;;5.87;;
7181;SDS011;3632;42.724;23.298;2023-05-10T05:21:40;11.20;;;6.07;;
7181;SDS011;3632;42.724;23.298;2023-05-10T05:24:07;7.00;;;5.70;;
7181;SDS011;3632;42.724;23.298;2023-05-10T05:26:35;8.07;;;6.10;;
7181;SDS011;3632;42.724;23.298;2023-05-10T05:29:03;7.33;;;6.03;;
7181;SDS011;3632;42.724;23.298;2023-05-10T05:31:30;7.03;;;6.10;;
7181;SDS011;3632;42.724;23.298;2023-05-10T05:33:57;8.67;;;6.60;;
7181;SDS011;3632;42.724;23.298;2023-05-10T05:36:24;6.23;;;5.63;;
7181;SDS011;3632;42.724;23.298;2023-05-10T05:38:51;7.33;;;6.43;;
7181;SDS011;3632;42.724;23.298;2023-05-10T05:41:18;7.03;;;6.13;;
7181;SDS011;3632;42.724;23.298;2023-05-10T05:43:45;8.07;;;6.20;;
7181;SDS011;3632;42.724;23.298;2023-05-10T05:46:13;7.10;;;6.20;;
7181;SDS011;3632;42.724;23.298;2023-05-10T05:48:40;6.87;;;6.17;;
7181;SDS011;3632;42.724;23.298;2023-05-10T05:51:06;9.90;;;6.60;;
7181;SDS011;3632;42.724;23.298;2023-05-10T05:53:33;6.83;;;6.10;;
7181;SDS011;3632;42.724;23.298;2023-05-10T05:56:00;8.10;;;6.60;;
7181;SDS011;3632;42.724;23.298;2023-05-10T05:58:28;7.30;;;6.50;;
7181;SDS011;3632;42.724;23.298;2023-05-10T06:00:55;9.73;;;6.67;;
7181;SDS011;3632;42.724;23.298;2023-05-10T06:03:23;7.50;;;6.27;;
7181;SDS011;3632;42.724;23.298;2023-05-10T06:05:50;7.87;;;6.00;;
7181;SDS011;3632;42.724;23.298;2023-05-10T06:08:17;7.10;;;6.40;;
7181;SDS011;3632;42.724;23.298;2023-05-10T06:10:44;8.67;;;7.00;;
7181;SDS011;3632;42.724;23.298;2023-05-10T06:13:11;7.17;;;6.33;;
7181;SDS011;3632;42.724;23.298;2023-05-10T06:15:38;8.03;;;6.43;;
7181;SDS011;3632;42.724;23.298;2023-05-10T06:18:05;7.90;;;6.43;;
7181;SDS011;3632;42.724;23.298;2023-05-10T06:20:33;7.90;;;6.43;;
7181;SDS011;3632;42.724;23.298;2023-05-10T06:23:00;9.87;;;6.80;;
7181;SDS011;3632;42.724;23.298;2023-05-10T06:25:26;9.07;;;6.60;;
7181;SDS011;3632;42.724;23.298;2023-05-10T06:27:53;8.20;;;5.80;;
7181;SDS011;3632;42.724;23.298;2023-05-10T06:30:23;7.33;;;6.40;;
7181;SDS011;3632;42.724;23.298;2023-05-10T06:32:53;9.23;;;6.43;;
7181;SDS011;3632;42.724;23.298;2023-05-10T06:35:20;8.20;;;6.13;;
7181;SDS011;3632;42.724;23.298;2023-05-10T06:37:50;7.90;;;5.83;;
7181;SDS011;3632;42.724;23.298;2023-05-10T06:40:20;7.57;;;5.77;;
7181;SDS011;3632;42.724;23.298;2023-05-10T06:42:47;8.30;;;5.97;;
7181;SDS011;3632;42.724;23.298;2023-05-10T06:45:14;8.73;;;5.70;;
7181;SDS011;3632;42.724;23.298;2023-05-10T06:47:41;8.70;;;6.17;;
7181;SDS011;3632;42.724;23.298;2023-05-10T06:50:08;6.80;;;6.10;;
7181;SDS011;3632;42.724;23.298;2023-05-10T06:52:36;6.07;;;5.47;;
7181;SDS011;3632;42.724;23.298;2023-05-10T06:55:04;7.30;;;6.03;;
7181;SDS011;3632;42.724;23.298;2023-05-10T06:57:33;10.63;;;6.17;;
7181;SDS011;3632;42.724;23.298;2023-05-10T07:00:00;7.23;;;5.97;;
7181;SDS011;3632;42.724;23.298;2023-05-10T07:02:29;6.20;;;5.60;;
7181;SDS011;3632;42.724;23.298;2023-05-10T07:04:55;10.17;;;6.03;;
7181;SDS011;3632;42.724;23.298;2023-05-10T07:07:23;6.37;;;5.43;;
7181;SDS011;3632;42.724;23.298;2023-05-10T07:09:50;6.00;;;5.40;;
7181;SDS011;3632;42.724;23.298;2023-05-10T07:12:18;8.00;;;5.47;;
7181;SDS011;3632;42.724;23.298;2023-05-10T07:14:45;6.10;;;5.50;;
7181;SDS011;3632;42.724;23.298;2023-05-10T07:17:12;6.83;;;5.27;;
7181;SDS011;3632;42.724;23.298;2023-05-10T07:19:39;8.00;;;6.37;;
7181;SDS011;3632;42.724;23.298;2023-05-10T07:22:06;6.70;;;5.73;;
7181;SDS011;3632;42.724;23.298;2023-05-10T07:24:34;6.90;;;6.17;;
7181;SDS011;3632;42.724;23.298;2023-05-10T07:27:00;6.13;;;5.53;;
7181;SDS011;3632;42.724;23.298;2023-05-10T07:29:29;7.13;;;6.00;;
7181;SDS011;3632;42.724;23.298;2023-05-10T07:31:55;7.03;;;6.30;;
7181;SDS011;3632;42.724;23.298;2023-05-10T07:34:22;6.43;;;5.73;;
7181;SDS011;3632;42.724;23.298;2023-05-10T07:36:49;10.20;;;6.20;;
7181;SDS011;3632;42.724;23.298;2023-05-10T07:39:17;6.77;;;5.97;;
7181;SDS011;3632;42.724;23.298;2023-05-10T07:41:43;8.90;;;6.23;;
7181;SDS011;3632;42.724;23.298;2023-05-10T07:44:10;6.40;;;5.53;;
7181;SDS011;3632;42.724;23.298;2023-05-10T07:46:38;8.23;;;6.27;;
7181;SDS011;3632;42.724;23.298;2023-05-10T07:49:05;7.10;;;6.40;;
7181;SDS011;3632;42.724;23.298;2023-05-10T07:51:32;7.77;;;5.83;;
7181;SDS011;3632;42.724;23.298;2023-05-10T07:53:58;6.97;;;6.27;;
7181;SDS011;3632;42.724;23.298;2023-05-10T07:56:25;8.40;;;6.90;;
7181;SDS011;3632;42.724;23.298;2023-05-10T07:58:54;7.23;;;6.50;;
7181;SDS011;3632;42.724;23.298;2023-05-10T08:01:22;9.97;;;7.40;;
7181;SDS011;3632;42.724;23.298;2023-05-10T08:03:50;8.40;;;7.33;;
7181;SDS011;3632;42.724;23.298;2023-05-10T08:06:18;8.00;;;7.30;;
7181;SDS011;3632;42.724;23.298;2023-05-10T08:08:46;7.87;;;7.07;;
7181;SDS011;3632;42.724;23.298;2023-05-10T08:11:15;11.83;;;7.70;;
7181;SDS011;3632;42.724;23.298;2023-05-10T08:13:42;7.50;;;6.60;;
7181;SDS011;3632;42.724;23.298;2023-05-10T08:16:09;7.27;;;6.57;;
7181;SDS011;3632;42.724;23.298;2023-05-10T08:18:36;7.97;;;7.10;;
7181;SDS011;3632;42.724;23.298;2023-05-10T08:21:04;8.00;;;7.30;;
7181;SDS011;3632;42.724;23.298;2023-05-10T08:23:32;8.17;;;7.47;;
7181;SDS011;3632;42.724;23.298;2023-05-10T08:25:59;7.97;;;7.27;;
7181;SDS011;3632;42.724;23.298;2023-05-10T08:28:26;10.67;;;8.93;;
7181;SDS011;3632;42.724;23.298;2023-05-10T08:30:52;8.00;;;7.20;;
7181;SDS011;3632;42.724;23.298;2023-05-10T08:33:19;7.70;;;7.00;;
7181;SDS011;3632;42.724;23.298;2023-05-10T08:35:46;8.10;;;7.13;;
7181;SDS011;3632;42.724;23.298;2023-05-10T08:38:14;9.13;;;7.20;;
7181;SDS011;3632;42.724;23.298;2023-05-10T08:40:41;7.07;;;6.47;;
7181;SDS011;3632;42.724;23.298;2023-05-10T08:43:10;7.73;;;6.53;;
7181;SDS011;3632;42.724;23.298;2023-05-10T08:45:38;8.60;;;6.80;;
7181;SDS011;3632;42.724;23.298;2023-05-10T08:48:07;7.40;;;6.70;;
7181;SDS011;3632;42.724;23.298;2023-05-10T08:50:35;8.43;;;7.63;;
7181;SDS011;3632;42.724;23.298;2023-05-10T08:53:04;8.37;;;7.03;;
7181;SDS011;3632;42.724;23.298;2023-05-10T08:55:34;8.17;;;7.20;;
7181;SDS011;3632;42.724;23.298;2023-05-10T08:58:03;10.93;;;7.57;;
7181;SDS011;3632;42.724;23.298;2023-05-10T09:00:31;10.33;;;7.97;;
7181;SDS011;3632;42.724;23.298;2023-05-10T09:02:58;10.50;;;7.50;;
7181;SDS011;3632;42.724;23.298;2023-05-10T09:05:26;7.77;;;7.13;;
7181;SDS011;3632;42.724;23.298;2023-05-10T09:07:56;8.43;;;6.93;;
7181;SDS011;3632;42.724;23.298;2023-05-10T09:10:24;10.50;;;8.20;;
7181;SDS011;3632;42.724;23.298;2023-05-10T09:12:53;7.87;;;7.10;;
7181;SDS011;3632;42.724;23.298;2023-05-10T09:15:23;10.83;;;7.83;;
7181;SDS011;3632;42.724;23.298;2023-05-10T09:17:50;7.87;;;7.07;;
7181;SDS011;3632;42.724;23.298;2023-05-10T09:20:17;8.93;;;7.50;;
7181;SDS011;3632;42.724;23.298;2023-05-10T09:22:44;9.50;;;7.50;;
7181;SDS011;3632;42.724;23.298;2023-05-10T09:25:11;8.23;;;7.43;;
7181;SDS011;3632;42.724;23.298;2023-05-10T09:27:39;10.27;;;8.50;;
7181;SDS011;3632;42.724;23.298;2023-05-10T09:30:09;13.27;;;6.63;;
7181;SDS011;3632;42.724;23.298;2023-05-10T09:32:41;7.30;;;6.60;;
7181;SDS011;3632;42.724;23.298;2023-05-10T09:35:12;6.73;;;6.03;;
7181;SDS011;3632;42.724;23.298;2023-05-10T09:37:41;10.63;;;6.47;;
7181;SDS011;3632;42.724;23.298;2023-05-10T09:40:11;11.00;;;7.57;;
7181;SDS011;3632;42.724;23.298;2023-05-10T09:42:39;9.23;;;6.80;;
7181;SDS011;3632;42.724;23.298;2023-05-10T09:45:09;9.77;;;7.07;;
7181;SDS011;3632;42.724;23.298;2023-05-10T09:47:36;10.30;;;7.77;;
7181;SDS011;3632;42.724;23.298;2023-05-10T09:50:03;8.57;;;7.37;;
7181;SDS011;3632;42.724;23.298;2023-05-10T09:52:30;10.13;;;8.00;;
7181;SDS011;3632;42.724;23.298;2023-05-10T09:55:14;13.17;;;7.30;;
7181;SDS011;3632;42.724;23.298;2023-05-10T09:57:50;9.53;;;7.60;;
7181;SDS011;3632;42.724;23.298;2023-05-10T10:00:27;9.13;;;7.70;;
7181;SDS011;3632;42.724;23.298;2023-05-10T10:02:54;7.47;;;6.77;;
7181;SDS011;3632;42.724;23.298;2023-05-10T10:05:27;9.00;;;6.43;;
7181;SDS011;3632;42.724;23.298;2023-05-10T10:07:55;8.20;;;6.20;;
7181;SDS011;3632;42.724;23.298;2023-05-10T10:10:23;7.67;;;6.10;;
7181;SDS011;3632;42.724;23.298;2023-05-10T10:12:50;7.93;;;7.07;;
7181;SDS011;3632;42.724;23.298;2023-05-10T10:15:17;10.13;;;7.67;;
7181;SDS011;3632;42.724;23.298;2023-05-10T10:17:46;8.77;;;7.33;;
7181;SDS011;3632;42.724;23.298;2023-05-10T10:20:14;6.73;;;5.70;;
7181;SDS011;3632;42.724;23.298;2023-05-10T10:22:41;6.93;;;6.10;;
7181;SDS011;3632;42.724;23.298;2023-05-10T10:25:10;7.30;;;5.83;;
7181;SDS011;3632;42.724;23.298;2023-05-10T10:27:41;8.37;;;6.57;;
7181;SDS011;3632;42.724;23.298;2023-05-10T10:30:17;7.30;;;6.33;;
7181;SDS011;3632;42.724;23.298;2023-05-10T10:35:53;6.47;;;5.77;;
7181;SDS011;3632;42.724;23.298;2023-05-10T10:38:20;6.83;;;6.13;;
7181;SDS011;3632;42.724;23.298;2023-05-10T10:40:47;10.17;;;6.60;;
7181;SDS011;3632;42.724;23.298;2023-05-10T10:43:21;8.27;;;5.80;;
7181;SDS011;3632;42.724;23.298;2023-05-10T10:48:40;7.13;;;5.70;;
7181;SDS011;3632;42.724;23.298;2023-05-10T10:51:07;10.33;;;6.50;;
7181;SDS011;3632;42.724;23.298;2023-05-10T10:53:34;6.53;;;5.93;;
7181;SDS011;3632;42.724;23.298;2023-05-10T10:56:07;10.00;;;6.23;;
7181;SDS011;3632;42.724;23.298;2023-05-10T10:58:36;7.60;;;6.00;;
7181;SDS011;3632;42.724;23.298;2023-05-10T11:06:44;8.80;;;6.77;;
7181;SDS011;3632;42.724;23.298;2023-05-10T11:09:12;6.80;;;5.37;;
7181;SDS011;3632;42.724;23.298;2023-05-10T11:11:49;10.93;;;6.97;;
7181;SDS011;3632;42.724;23.298;2023-05-10T11:14:20;8.23;;;5.60;;
7181;SDS011;3632;42.724;23.298;2023-05-10T11:16:48;6.97;;;5.70;;
7181;SDS011;3632;42.724;23.298;2023-05-10T11:19:15;8.17;;;5.90;;
7181;SDS011;3632;42.724;23.298;2023-05-10T11:21:45;7.30;;;5.50;;
7181;SDS011;3632;42.724;23.298;2023-05-10T11:24:13;10.33;;;7.03;;
7181;SDS011;3632;42.724;23.298;2023-05-10T11:26:41;12.30;;;5.97;;
7181;SDS011;3632;42.724;23.298;2023-05-10T11:29:08;10.03;;;6.20;;
7181;SDS011;3632;42.724;23.298;2023-05-10T11:31:38;9.90;;;5.77;;
7181;SDS011;3632;42.724;23.298;2023-05-10T11:34:10;7.57;;;5.77;;
7181;SDS011;3632;42.724;23.298;2023-05-10T11:36:41;10.77;;;5.83;;
7181;SDS011;3632;42.724;23.298;2023-05-10T11:39:07;6.33;;;5.63;;
7181;SDS011;3632;42.724;23.298;2023-05-10T11:41:36;9.90;;;6.00;;
7181;SDS011;3632;42.724;23.298;2023-05-10T11:44:03;6.30;;;5.63;;
7181;SDS011;3632;42.724;23.298;2023-05-10T11:46:30;7.43;;;5.80;;
7181;SDS011;3632;42.724;23.298;2023-05-10T11:48:57;6.93;;;6.23;;
7181;SDS011;3632;42.724;23.298;2023-05-10T11:51:29;11.73;;;7.10;;
7181;SDS011;3632;42.724;23.298;2023-05-10T11:54:00;9.43;;;6.50;;
7181;SDS011;3632;42.724;23.298;2023-05-10T11:56:31;7.13;;;6.43;;
7181;SDS011;3632;42.724;23.298;2023-05-10T11:58:59;7.43;;;6.10;;
7181;SDS011;3632;42.724;23.298;2023-05-10T12:01:27;8.97;;;6.77;;
7181;SDS011;3632;42.724;23.298;2023-05-10T12:03:56;8.03;;;5.83;;
7181;SDS011;3632;42.724;23.298;2023-05-10T12:06:26;9.43;;;7.57;;
7181;SDS011;3632;42.724;23.298;2023-05-10T12:08:54;9.10;;;6.47;;
7181;SDS011;3632;42.724;23.298;2023-05-10T12:11:25;7.20;;;6.50;;
7181;SDS011;3632;42.724;23.298;2023-05-10T12:13:53;9.37;;;5.80;;
7181;SDS011;3632;42.724;23.298;2023-05-10T12:16:21;8.83;;;6.17;;
7181;SDS011;3632;42.724;23.298;2023-05-10T12:18:49;8.97;;;5.77;;
7181;SDS011;3632;42.724;23.298;2023-05-10T12:21:17;7.47;;;6.63;;
7181;SDS011;3632;42.724;23.298;2023-05-10T12:23:45;9.80;;;7.10;;
7181;SDS011;3632;42.724;23.298;2023-05-10T12:26:13;8.37;;;6.93;;
7181;SDS011;3632;42.724;23.298;2023-05-10T12:28:42;9.73;;;7.53;;
7181;SDS011;3632;42.724;23.298;2023-05-10T12:31:09;9.73;;;6.77;;
7181;SDS011;3632;42.724;23.298;2023-05-10T12:33:36;10.17;;;6.83;;
7181;SDS011;3632;42.724;23.298;2023-05-10T12:36:07;8.30;;;6.87;;
7181;SDS011;3632;42.724;23.298;2023-05-10T12:38:35;8.93;;;6.87;;
7181;SDS011;3632;42.724;23.298;2023-05-10T12:41:03;7.63;;;6.90;;
7181;SDS011;3632;42.724;23.298;2023-05-10T12:43:31;8.30;;;7.03;;
7181;SDS011;3632;42.724;23.298;2023-05-10T12:46:00;7.47;;;6.50;;
7181;SDS011;3632;42.724;23.298;2023-05-10T12:48:31;7.83;;;7.03;;
7181;SDS011;3632;42.724;23.298;2023-05-10T12:50:59;9.40;;;7.07;;
7181;SDS011;3632;42.724;23.298;2023-05-10T12:53:26;9.47;;;6.83;;
7181;SDS011;3632;42.724;23.298;2023-05-10T12:55:54;8.37;;;7.10;;
7181;SDS011;3632;42.724;23.298;2023-05-10T12:58:21;9.53;;;6.97;;
7181;SDS011;3632;42.724;23.298;2023-05-10T13:00:47;8.33;;;6.50;;
7181;SDS011;3632;42.724;23.298;2023-05-10T13:03:18;8.13;;;6.43;;
7181;SDS011;3632;42.724;23.298;2023-05-10T13:05:45;12.07;;;6.33;;
7181;SDS011;3632;42.724;23.298;2023-05-10T13:08:12;9.07;;;6.27;;
7181;SDS011;3632;42.724;23.298;2023-05-10T13:10:40;6.60;;;5.93;;
7181;SDS011;3632;42.724;23.298;2023-05-10T13:13:10;8.60;;;6.40;;
7181;SDS011;3632;42.724;23.298;2023-05-10T13:15:37;9.00;;;6.40;;
7181;SDS011;3632;42.724;23.298;2023-05-10T13:18:04;8.20;;;6.23;;
7181;SDS011;3632;42.724;23.298;2023-05-10T13:20:32;7.23;;;6.50;;
7181;SDS011;3632;42.724;23.298;2023-05-10T13:22:59;8.10;;;5.50;;
7181;SDS011;3632;42.724;23.298;2023-05-10T13:25:27;9.67;;;5.83;;
7181;SDS011;3632;42.724;23.298;2023-05-10T13:27:55;6.33;;;5.70;;
7181;SDS011;3632;42.724;23.298;2023-05-10T13:30:21;8.30;;;5.90;;
7181;SDS011;3632;42.724;23.298;2023-05-10T13:32:49;6.90;;;5.87;;
7181;SDS011;3632;42.724;23.298;2023-05-10T13:35:16;6.90;;;6.00;;
7181;SDS011;3632;42.724;23.298;2023-05-10T13:37:45;6.77;;;6.03;;
7181;SDS011;3632;42.724;23.298;2023-05-10T13:40:11;8.80;;;6.10;;
7181;SDS011;3632;42.724;23.298;2023-05-10T13:42:40;8.73;;;5.97;;
7181;SDS011;3632;42.724;23.298;2023-05-10T13:45:07;6.47;;;5.53;;
7181;SDS011;3632;42.724;23.298;2023-05-10T13:47:37;10.30;;;6.30;;
7181;SDS011;3632;42.724;23.298;2023-05-10T13:50:04;6.30;;;5.70;;
7181;SDS011;3632;42.724;23.298;2023-05-10T13:52:31;10.77;;;7.83;;
7181;SDS011;3632;42.724;23.298;2023-05-10T13:54:59;8.13;;;5.87;;
7181;SDS011;3632;42.724;23.298;2023-05-10T13:57:26;7.67;;;6.83;;
7181;SDS011;3632;42.724;23.298;2023-05-10T13:59:54;20.37;;;14.97;;
7181;SDS011;3632;42.724;23.298;2023-05-10T14:02:22;8.60;;;7.10;;
7181;SDS011;3632;42.724;23.298;2023-05-10T14:04:49;6.50;;;5.63;;
7181;SDS011;3632;42.724;23.298;2023-05-10T14:07:16;13.70;;;6.00;;
7181;SDS011;3632;42.724;23.298;2023-05-10T14:09:44;8.53;;;6.00;;
7181;SDS011;3632;42.724;23.298;2023-05-10T14:12:12;8.17;;;5.67;;
7181;SDS011;3632;42.724;23.298;2023-05-10T14:14:39;6.73;;;5.67;;
7181;SDS011;3632;42.724;23.298;2023-05-10T14:17:06;10.60;;;6.70;;
7181;SDS011;3632;42.724;23.298;2023-05-10T14:19:33;10.57;;;6.10;;
7181;SDS011;3632;42.724;23.298;2023-05-10T14:22:01;7.83;;;5.53;;
7181;SDS011;3632;42.724;23.298;2023-05-10T14:24:28;7.93;;;6.20;;
7181;SDS011;3632;42.724;23.298;2023-05-10T14:26:55;9.67;;;6.03;;
7181;SDS011;3632;42.724;23.298;2023-05-10T14:29:23;10.70;;;7.40;;
7181;SDS011;3632;42.724;23.298;2023-05-10T14:31:50;6.97;;;5.90;;
7181;SDS011;3632;42.724;23.298;2023-05-10T14:34:17;7.67;;;6.07;;
7181;SDS011;3632;42.724;23.298;2023-05-10T14:36:44;7.33;;;6.30;;
7181;SDS011;3632;42.724;23.298;2023-05-10T14:39:10;10.43;;;6.70;;
7181;SDS011;3632;42.724;23.298;2023-05-10T14:41:42;9.33;;;6.37;;
7181;SDS011;3632;42.724;23.298;2023-05-10T14:44:10;7.50;;;5.70;;
7181;SDS011;3632;42.724;23.298;2023-05-10T14:46:40;6.40;;;5.70;;
7181;SDS011;3632;42.724;23.298;2023-05-10T14:49:06;8.50;;;7.00;;
7181;SDS011;3632;42.724;23.298;2023-05-10T14:51:34;7.90;;;5.97;;
7181;SDS011;3632;42.724;23.298;2023-05-10T14:54:02;6.30;;;5.70;;
7181;SDS011;3632;42.724;23.298;2023-05-10T14:56:29;7.23;;;6.20;;
7181;SDS011;3632;42.724;23.298;2023-05-10T14:58:56;9.57;;;6.70;;
7181;SDS011;3632;42.724;23.298;2023-05-10T15:01:23;11.17;;;7.13;;
7181;SDS011;3632;42.724;23.298;2023-05-10T15:03:51;6.93;;;6.23;;
7181;SDS011;3632;42.724;23.298;2023-05-10T15:06:20;8.90;;;5.87;;
7181;SDS011;3632;42.724;23.298;2023-05-10T15:08:50;11.27;;;7.73;;
7181;SDS011;3632;42.724;23.298;2023-05-10T15:11:17;7.33;;;6.60;;
7181;SDS011;3632;42.724;23.298;2023-05-10T15:13:44;10.43;;;5.80;;
7181;SDS011;3632;42.724;23.298;2023-05-10T15:16:11;9.13;;;5.90;;
7181;SDS011;3632;42.724;23.298;2023-05-10T15:18:37;8.03;;;5.97;;
7181;SDS011;3632;42.724;23.298;2023-05-10T15:21:20;7.37;;;6.53;;
7181;SDS011;3632;42.724;23.298;2023-05-10T15:23:47;9.20;;;7.27;;